CDT,Max TemperatureF,Mean TemperatureF,Min TemperatureF,Max Dew PointF,MeanDew PointF,Min DewpointF,Max Humidity, Mean Humidity, Min Humidity, Max Sea Level PressureIn, Mean Sea Level PressureIn, Min Sea Level PressureIn, Max VisibilityMiles, Mean VisibilityMiles, Min VisibilityMiles, Max Wind SpeedMPH, Mean Wind SpeedMPH, Max Gust SpeedMPH,PrecipitationIn, CloudCover, Events, WindDirDegrees
2014-3-1,84,67,50,29,24,17,41,22,10,29.95,29.81,29.73,10,10,10,20,11,28,0.00,0,,216
2014-3-2,64,46,26,42,31,19,92,70,23,30.30,30.02,29.75,10,8,2,16,10,,0.00,4,,23
2014-3-3,42,32,21,19,16,14,78,60,38,30.37,30.27,30.12,10,10,10,15,8,,0.00,3,,29
2014-3-4,66,47,28,29,22,16,63,38,24,30.09,29.95,29.81,10,10,10,15,5,21,0.00,0,,147
2014-3-5,66,56,44,35,31,26,68,38,28,30.19,29.92,29.75,10,10,10,30,14,40,0.00,3,,319
2014-3-6,73,54,35,35,28,18,86,46,14,30.20,30.06,29.86,10,10,10,16,5,18,0.00,0,,168
2014-3-7,82,68,54,45,28,22,62,26,11,29.84,29.73,29.61,10,10,10,17,11,25,0.00,1,,196
2014-3-8,59,52,45,46,32,28,67,51,32,30.28,30.06,29.70,10,10,8,23,14,29,0.00,5,,2
2014-3-9,60,48,37,30,25,21,65,42,23,30.35,30.24,30.14,10,10,10,9,6,,0.00,4,,65
2014-3-10,73,58,44,40,31,23,55,38,26,30.15,29.97,29.80,10,10,10,10,6,,0.00,1,,193
2014-3-11,84,70,55,35,25,11,45,25,7,29.80,29.70,29.62,10,10,6,31,17,40,0.00,0,,258
2014-3-12,57,50,39,33,25,18,58,42,24,30.41,30.23,29.91,10,6,1,30,19,43,0.00,4,,13
2014-3-13,66,52,37,22,20,19,48,31,17,30.27,30.10,29.90,10,10,10,21,10,30,0.00,0,,161
2014-3-14,77,62,46,35,26,22,42,28,16,29.94,29.87,29.81,10,10,6,16,11,21,0.00,0,,159
2014-3-15,75,64,52,43,29,21,62,31,13,29.93,29.78,29.67,10,10,5,28,14,36,0.00,1,,267
2014-3-16,61,50,41,43,32,17,86,54,19,30.26,30.10,29.84,10,9,4,24,17,36,0.24,5,Rain,349
2014-3-17,81,58,36,27,19,11,62,28,8,30.12,29.82,29.56,10,10,10,22,9,29,0.00,0,,216
2014-3-18,84,70,55,18,11,4,23,13,5,29.84,29.62,29.50,10,10,10,26,15,36,0.00,0,,257
2014-3-19,62,50,39,21,18,3,45,29,13,30.23,30.12,29.86,10,8,2,16,9,,0.00,6,,41
2014-3-20,82,58,37,32,19,10,49,27,7,30.20,30.03,29.86,10,10,10,23,8,32,0.00,0,,163
2014-3-21,86,70,55,40,23,8,51,22,5,29.84,29.78,29.73,10,10,10,22,12,33,0.00,0,,235
2014-3-22,69,56,46,32,27,18,51,32,17,30.13,29.94,29.77,10,10,2,13,8,16,0.00,0,,351
2014-3-23,55,48,42,36,29,23,68,49,34,30.39,30.19,29.97,10,10,10,18,11,24,0.00,4,,68
2014-3-24,75,57,39,32,29,25,73,41,15,30.15,30.03,29.94,10,10,10,10,7,20,0.00,0,,134
2014-3-25,69,56,43,43,37,27,73,50,36,30.29,30.08,29.95,10,10,10,23,13,38,0.00,2,,109
2014-3-26,82,66,50,51,40,20,84,52,10,29.92,29.77,29.64,10,10,10,24,14,33,0.00,1,,178
2014-3-27,84,68,51,51,27,16,86,33,8,29.77,29.69,29.63,10,10,10,23,15,31,0.00,0,,234
2014-3-28,79,66,54,30,20,14,29,18,10,30.01,29.85,29.73,10,10,9,28,14,47,0.00,0,,266
2014-3-29,75,60,46,37,29,16,59,32,19,30.26,30.10,30.01,10,10,10,20,9,31,0.00,0,,119
2014-3-30,84,70,55,45,39,34,51,34,20,30.01,29.87,29.72,10,10,10,25,19,37,0.00,0,,154
2014-3-31,89,71,54,48,27,9,70,27,5,29.88,29.79,29.70,10,10,10,24,14,36,0.00,0,,240